Time;durP1;ratioP1;P1;durP2;ratioP2;P2;SDS_P1;SDS_P2;PMS_P1;PMS_P2;Temp;Humidity;BMP_temperature;BMP_pressure;BME280_temperature;BME280_humidity;BME280_pressure;Samples;Min_cycle;Max_cycle;Signal;HPM_P1;HPM_P2
2021/06/04 06:55:53;;;;;;;4.65;2.70;;;20.00;99.90;;;;;;12073937;27;20398;-80
2021/06/04 07:01:40;;;;;;;8.15;2.97;;;20.40;99.90;;;;;;12048683;28;20084;-80
2021/06/04 07:07:27;;;;;;;4.95;2.78;;;21.10;99.90;;;;;;12029111;28;20044;-79
2021/06/04 07:13:24;;;;;;;8.60;2.80;;;21.60;99.90;;;;;;12030614;28;20053;-78
2021/06/04 07:19:11;;;;;;;4.20;2.53;;;21.90;99.90;;;;;;11977684;28;20057;-80
2021/06/04 07:24:58;;;;;;;5.85;2.50;;;22.10;99.90;;;;;;11990655;28;20045;-79
2021/06/04 07:30:48;;;;;;;4.28;2.47;;;22.30;99.90;;;;;;12031718;28;20134;-79
2021/06/04 07:36:38;;;;;;;4.22;2.80;;;22.40;99.90;;;;;;11999697;28;20053;-79
2021/06/04 07:42:24;;;;;;;6.15;2.92;;;22.60;99.90;;;;;;11974001;28;20455;-78
2021/06/04 07:58:13;;;;;;;4.63;3.00;;;22.40;99.90;;;;;;12104776;27;890264;-78
2021/06/04 08:04:00;;;;;;;6.90;3.22;;;22.30;99.90;;;;;;12064555;28;20165;-78
2021/06/04 08:09:47;;;;;;;4.32;2.53;;;22.80;99.90;;;;;;12061464;28;20052;-78
2021/06/04 08:15:38;;;;;;;4.05;2.05;;;23.10;99.90;;;;;;12057960;28;20052;-78
2021/06/04 08:21:30;;;;;;;8.07;2.70;;;23.30;99.90;;;;;;12066429;28;20341;-78
2021/06/04 08:27:19;;;;;;;3.37;2.20;;;23.70;99.90;;;;;;12058924;28;20063;-79
2021/06/04 08:33:08;;;;;;;5.55;2.65;;;23.80;99.90;;;;;;12058930;28;20041;-79
2021/06/04 08:38:56;;;;;;;4.22;2.65;;;23.90;99.90;;;;;;12053275;28;20040;-79
2021/06/04 08:44:50;;;;;;;2.75;2.00;;;23.80;99.90;;;;;;12062785;28;20503;-79
2021/06/04 08:50:47;;;;;;;4.15;2.35;;;23.80;99.90;;;;;;12063183;28;20058;-80
2021/06/04 08:56:36;;;;;;;4.85;2.80;;;23.90;99.90;;;;;;12059857;28;20064;-80
2021/06/04 09:02:39;;;;;;;5.70;3.80;;;24.00;99.90;;;;;;12060170;28;20056;-79
2021/06/04 09:08:32;;;;;;;5.25;3.92;;;24.20;99.90;;;;;;12036881;28;20048;-78
2021/06/04 09:14:19;;;;;;;5.80;4.07;;;24.40;99.90;;;;;;12028308;28;20045;-78
2021/06/04 09:20:15;;;;;;;6.93;3.83;;;24.50;99.90;;;;;;12021169;28;20047;-78
2021/06/04 09:26:06;;;;;;;7.22;3.22;;;24.60;99.90;;;;;;12029298;28;20061;-80
2021/06/04 09:31:56;;;;;;;5.93;3.13;;;24.90;99.90;;;;;;12030321;28;20064;-79
2021/06/04 09:37:43;;;;;;;4.63;2.42;;;24.90;99.90;;;;;;12020139;28;20052;-79
2021/06/04 09:43:33;;;;;;;2.78;2.10;;;24.90;99.90;;;;;;12029891;28;20048;-81
2021/06/04 09:49:29;;;;;;;4.75;2.10;;;24.90;99.90;;;;;;12026755;28;20700;-82
2021/06/04 09:55:26;;;;;;;5.10;2.28;;;25.00;99.90;;;;;;12032540;28;20067;-79
2021/06/04 10:01:16;;;;;;;3.13;2.22;;;24.90;99.90;;;;;;12029314;28;20086;-79
2021/06/04 10:07:05;;;;;;;2.55;2.10;;;24.90;99.90;;;;;;12026124;28;20152;-78
2021/06/04 10:12:57;;;;;;;4.22;2.20;;;25.00;99.90;;;;;;12027432;28;20422;-79
2021/06/04 10:18:45;;;;;;;6.25;1.95;;;25.20;99.90;;;;;;12023584;28;20121;-81
2021/06/04 10:24:34;;;;;;;3.20;1.73;;;25.10;99.90;;;;;;12029782;28;20049;-80
2021/06/04 10:30:24;;;;;;;1.60;1.42;;;24.60;99.90;;;;;;12031867;28;20048;-80
2021/06/04 10:36:17;;;;;;;1.65;1.20;;;24.30;99.90;;;;;;12024318;28;20044;-78
2021/06/04 10:42:13;;;;;;;2.37;1.50;;;24.20;99.90;;;;;;12025955;28;20060;-80
2021/06/04 10:48:27;;;;;;;2.03;1.20;;;24.30;99.90;;;;;;12028240;28;20514;-79
2021/06/04 10:54:32;;;;;;;3.40;1.58;;;24.10;99.90;;;;;;12022430;28;20057;-79
2021/06/04 11:00:21;;;;;;;1.95;1.30;;;24.60;99.90;;;;;;12027859;28;20074;-79
2021/06/04 11:06:18;;;;;;;1.55;1.30;;;24.80;99.90;;;;;;12031865;28;20053;-78
2021/06/04 11:12:16;;;;;;;1.75;1.13;;;24.90;99.90;;;;;;12026975;28;20435;-77
2021/06/04 11:18:10;;;;;;;1.20;1.10;;;25.00;99.90;;;;;;12028347;28;20057;-77
2021/06/04 11:24:00;;;;;;;;;;;25.10;99.90;;;;;;12026197;28;20073;-78
2021/06/04 11:29:49;;;;;;;1.55;1.33;;;25.00;99.90;;;;;;12024516;28;20261;-78
2021/06/04 11:35:40;;;;;;;3.88;1.85;;;25.20;99.90;;;;;;12024856;28;20059;-78
2021/06/04 11:41:32;;;;;;;3.47;2.05;;;25.20;99.90;;;;;;12027281;28;20063;-78
2021/06/04 11:47:26;;;;;;;3.30;2.40;;;24.40;99.90;;;;;;12028298;28;20048;-78
2021/06/04 11:53:36;;;;;;;12.68;4.63;;;23.30;99.90;;;;;;12023885;28;20057;-78
2021/06/04 11:59:52;;;;;;;10.68;5.03;;;22.60;99.90;;;;;;12032559;28;20068;-81
2021/06/04 12:05:42;;;;;;;8.38;5.82;;;21.50;99.90;;;;;;12023487;28;20055;-81
2021/06/04 12:11:33;;;;;;;10.73;6.25;;;21.00;99.90;;;;;;12029742;28;20056;-81
2021/06/04 12:17:26;;;;;;;8.02;6.22;;;20.90;99.90;;;;;;12015671;28;20053;-79
2021/06/04 12:23:42;;;;;;;8.57;4.87;;;21.10;99.90;;;;;;12023997;28;20048;-79
2021/06/04 12:29:38;;;;;;;5.85;5.07;;;21.40;99.90;;;;;;12022766;28;20519;-81
2021/06/04 12:35:41;;;;;;;8.55;6.18;;;21.00;99.90;;;;;;12023778;28;20053;-79
2021/06/04 12:41:29;;;;;;;11.17;7.70;;;21.10;99.90;;;;;;12030432;28;20056;-80
2021/06/04 12:47:22;;;;;;;12.45;8.38;;;21.10;99.90;;;;;;12035460;28;20059;-80
2021/06/04 12:53:19;;;;;;;13.27;9.10;;;21.30;99.90;;;;;;12033142;28;20542;-79
2021/06/04 12:59:14;;;;;;;12.10;8.15;;;21.70;99.90;;;;;;12030573;28;20056;-79
2021/06/04 13:05:08;;;;;;;12.68;10.00;;;21.80;99.90;;;;;;12031347;28;20056;-79
2021/06/04 13:10:59;;;;;;;10.50;8.43;;;22.30;99.90;;;;;;12033846;28;20052;-79
2021/06/04 13:16:46;;;;;;;11.82;8.23;;;22.60;99.90;;;;;;12033476;28;20060;-78
2021/06/04 13:22:34;;;;;;;10.43;7.63;;;22.60;99.90;;;;;;12030746;28;20049;-80
2021/06/04 13:28:27;;;;;;;11.52;6.80;;;23.10;99.90;;;;;;12018653;28;20040;-79
2021/06/04 13:34:18;;;;;;;9.10;5.82;;;23.40;99.90;;;;;;12027012;28;20392;-79
2021/06/04 13:40:07;;;;;;;7.05;5.50;;;24.10;99.90;;;;;;12026074;28;20049;-78
2021/06/04 13:45:55;;;;;;;6.75;5.57;;;24.10;99.90;;;;;;12029498;28;20057;-79
2021/06/04 13:51:55;;;;;;;8.00;5.70;;;23.80;99.90;;;;;;12027282;28;20060;-80
2021/06/04 13:57:41;;;;;;;6.35;5.22;;;23.70;99.90;;;;;;12029405;28;20052;-79
2021/06/04 14:03:30;;;;;;;10.65;5.70;;;23.40;99.90;;;;;;12037052;28;20056;-80
2021/06/04 14:09:31;;;;;;;8.07;5.40;;;23.30;99.90;;;;;;12026772;28;20515;-77
2021/06/04 14:15:31;;;;;;;5.00;4.50;;;23.20;99.90;;;;;;12031605;28;20647;-79
2021/06/04 14:21:38;;;;;;;4.85;3.75;;;23.40;99.90;;;;;;12029309;28;20052;-79
2021/06/04 14:27:36;;;;;;;5.38;3.88;;;23.40;99.90;;;;;;12016254;28;20511;-80
2021/06/04 14:33:27;;;;;;;7.07;4.65;;;23.50;99.90;;;;;;12031494;28;20053;-80
2021/06/04 14:39:33;;;;;;;3.95;3.50;;;23.40;99.90;;;;;;12029764;28;20757;-80
2021/06/04 14:45:22;;;;;;;5.45;3.50;;;23.10;99.90;;;;;;12028379;28;20418;-78
2021/06/04 14:51:08;;;;;;;3.50;3.20;;;23.30;99.90;;;;;;12028822;28;20052;-78
2021/06/04 14:56:54;;;;;;;5.63;3.60;;;23.90;99.90;;;;;;12021883;28;20065;-78
2021/06/04 15:02:42;;;;;;;5.13;3.53;;;23.80;99.90;;;;;;12023739;28;20069;-78
2021/06/04 15:08:29;;;;;;;4.07;3.50;;;23.90;99.90;;;;;;12022915;28;20067;-80
2021/06/04 15:14:15;;;;;;;4.05;3.20;;;24.10;99.90;;;;;;12027301;28;20037;-78
2021/06/04 15:20:05;;;;;;;3.60;3.30;;;24.10;99.90;;;;;;12028261;28;20061;-79
2021/06/04 15:25:51;;;;;;;3.95;3.50;;;23.80;99.90;;;;;;12022437;28;20507;-80
2021/06/04 15:31:39;;;;;;;5.63;4.28;;;23.40;99.90;;;;;;12020768;28;20048;-79
2021/06/04 15:37:29;;;;;;;4.40;4.00;;;23.40;99.90;;;;;;12023395;28;20486;-81
2021/06/04 15:43:17;;;;;;;4.80;4.15;;;23.30;99.90;;;;;;12025802;28;20507;-77
2021/06/04 15:49:04;;;;;;;5.03;4.55;;;23.30;99.90;;;;;;12024920;28;20070;-78
2021/06/04 15:54:52;;;;;;;7.28;5.20;;;23.00;99.90;;;;;;12026138;28;20060;-79
2021/06/04 16:00:38;;;;;;;6.07;5.47;;;22.60;99.90;;;;;;12029947;28;20052;-77
2021/06/04 16:06:30;;;;;;;6.97;6.00;;;22.70;99.90;;;;;;12027691;28;20060;-78
2021/06/04 16:12:18;;;;;;;7.45;6.35;;;22.70;99.90;;;;;;12029573;28;20060;-78
2021/06/04 16:18:08;;;;;;;10.93;6.90;;;22.60;99.90;;;;;;12031223;28;20061;-77
2021/06/04 16:23:55;;;;;;;7.78;6.65;;;22.50;99.90;;;;;;12028274;28;20044;-79
2021/06/04 16:29:42;;;;;;;9.23;6.68;;;22.70;99.90;;;;;;12031555;28;20053;-77
2021/06/04 16:35:32;;;;;;;8.70;7.28;;;22.80;99.90;;;;;;12031756;28;20056;-79
2021/06/04 16:41:18;;;;;;;8.10;7.30;;;22.80;99.90;;;;;;12036787;28;20536;-79
2021/06/04 16:47:08;;;;;;;9.15;7.90;;;22.70;99.90;;;;;;12033430;28;20060;-79
2021/06/04 16:52:54;;;;;;;14.60;8.95;;;22.40;99.90;;;;;;12027827;28;20098;-79
2021/06/04 16:58:42;;;;;;;13.35;8.75;;;22.20;99.90;;;;;;12029914;28;20637;-79
2021/06/04 17:04:29;;;;;;;11.15;9.13;;;22.10;99.90;;;;;;12031400;28;20052;-79
2021/06/04 17:10:16;;;;;;;11.70;9.43;;;22.10;99.90;;;;;;12026658;28;20717;-81
2021/06/04 17:16:05;;;;;;;14.27;9.15;;;21.90;99.90;;;;;;12026386;28;20048;-80
2021/06/04 17:21:54;;;;;;;13.07;9.27;;;21.90;99.90;;;;;;12031512;28;20110;-79
2021/06/04 17:27:40;;;;;;;11.05;8.77;;;21.70;99.90;;;;;;12031293;28;20048;-79
2021/06/04 17:33:27;;;;;;;16.42;10.10;;;21.70;99.90;;;;;;12029578;28;20045;-79
2021/06/04 17:39:15;;;;;;;16.05;11.57;;;21.60;99.90;;;;;;12036529;28;20051;-78
2021/06/04 17:45:03;;;;;;;15.40;9.70;;;21.90;99.90;;;;;;12032326;28;20063;-79
2021/06/04 17:50:54;;;;;;;15.15;10.43;;;21.90;99.90;;;;;;12031132;28;20556;-79
2021/06/04 17:56:42;;;;;;;12.20;9.93;;;21.80;99.90;;;;;;12038787;28;20056;-79
2021/06/04 18:02:28;;;;;;;13.45;10.27;;;21.70;99.90;;;;;;12032315;28;20713;-79
2021/06/04 18:08:15;;;;;;;15.93;11.60;;;21.40;99.90;;;;;;12038445;28;20045;-79
2021/06/04 18:14:03;;;;;;;14.77;11.98;;;21.30;99.90;;;;;;12047452;28;20040;-78
2021/06/04 18:19:50;;;;;;;16.20;11.68;;;21.20;99.90;;;;;;12069348;28;20108;-80
2021/06/04 18:25:37;;;;;;;14.55;11.32;;;21.30;99.90;;;;;;12076231;28;20044;-79
2021/06/04 18:31:25;;;;;;;14.35;11.43;;;21.50;99.90;;;;;;12050249;28;20055;-79
2021/06/04 18:37:11;;;;;;;17.27;11.95;;;21.60;99.90;;;;;;12032141;28;20071;-79
2021/06/04 18:42:58;;;;;;;21.17;13.98;;;21.60;99.90;;;;;;12033108;28;20064;-83
2021/06/04 18:48:46;;;;;;;17.17;12.45;;;21.60;99.90;;;;;;12029857;28;20044;-82
2021/06/04 18:54:33;;;;;;;19.33;13.95;;;21.40;99.90;;;;;;12023225;28;22155;-81
2021/06/04 19:00:26;;;;;;;21.98;14.30;;;20.70;99.90;;;;;;12022425;28;20272;-78
2021/06/04 19:06:26;;;;;;;19.05;15.88;;;21.00;99.90;;;;;;12021662;28;20095;-83
2021/06/04 19:12:13;;;;;;;26.40;18.95;;;20.70;99.90;;;;;;12025623;28;20213;-78
2021/06/04 19:17:59;;;;;;;34.60;22.33;;;20.80;99.90;;;;;;12029306;28;20061;-78
2021/06/04 19:23:47;;;;;;;35.85;24.23;;;20.60;99.90;;;;;;12030942;28;20064;-79
2021/06/04 19:29:33;;;;;;;35.88;23.85;;;20.60;99.90;;;;;;12031566;28;20052;-83
2021/06/04 19:35:22;;;;;;;31.30;22.88;;;20.60;99.90;;;;;;12032715;28;20060;-78
2021/06/04 19:41:13;;;;;;;30.05;22.35;;;20.60;99.90;;;;;;12025180;28;20060;-78
2021/06/04 19:47:00;;;;;;;33.63;23.58;;;20.50;99.90;;;;;;12026108;28;20131;-78
2021/06/04 19:52:47;;;;;;;34.15;23.67;;;20.40;99.90;;;;;;12032126;28;20143;-79
2021/06/04 19:58:37;;;;;;;29.30;21.25;;;20.40;99.90;;;;;;12031370;28;20524;-77
2021/06/04 20:04:25;;;;;;;28.95;20.77;;;20.40;99.90;;;;;;12026115;28;20052;-77
2021/06/04 20:10:13;;;;;;;37.15;23.52;;;20.40;99.90;;;;;;12039493;28;20096;-76
2021/06/04 20:16:01;;;;;;;39.92;24.83;;;20.40;99.90;;;;;;12028022;28;20052;-77
2021/06/04 20:21:48;;;;;;;34.80;23.65;;;20.10;99.90;;;;;;12028362;28;20063;-78
2021/06/04 20:27:34;;;;;;;44.33;25.05;;;19.90;99.90;;;;;;12025090;28;20047;-76
2021/06/04 20:33:26;;;;;;;37.33;24.27;;;19.40;99.90;;;;;;12023372;28;20049;-76
2021/06/04 20:39:13;;;;;;;37.13;23.20;;;19.20;99.90;;;;;;12025094;28;20156;-76
2021/06/04 20:44:59;;;;;;;34.13;22.15;;;19.50;99.90;;;;;;12025000;28;20049;-76
